Time;durP1;ratioP1;P1;durP2;ratioP2;P2;SDS_P1;SDS_P2;PMS_P1;PMS_P2;Temp;Humidity;BMP_temperature;BMP_pressure;BME280_temperature;BME280_humidity;BME280_pressure;Samples;Min_cycle;Max_cycle;Signal;HPM_P1;HPM_P2
2024/01/04 00:01:45;;;;;;;11.35;1.83;;;8.50;99.90;;;7.29;100.00;98349.50;4922294;28;20033;-82
2024/01/04 00:04:14;;;;;;;9.18;1.95;;;8.60;99.90;;;7.26;100.00;98349.75;4947759;28;20503;-83
2024/01/04 00:06:46;;;;;;;10.55;1.88;;;;;;;7.34;100.00;98354.41;4918917;28;20064;-82
2024/01/04 00:09:14;;;;;;;9.73;1.55;;;8.60;99.90;;;7.33;100.00;98347.53;4948896;28;20042;-83
2024/01/04 00:11:41;;;;;;;8.07;1.38;;;;;;;7.35;100.00;98356.94;4919310;28;20035;-84
2024/01/04 00:14:08;;;;;;;10.88;1.67;;;;;;;7.35;100.00;98350.88;4908532;28;20095;-83
2024/01/04 00:16:37;;;;;;;14.10;2.40;;;8.70;99.90;;;7.32;100.00;98354.56;4941603;28;20537;-83
2024/01/04 00:19:06;;;;;;;8.88;1.50;;;8.60;99.90;;;7.35;100.00;98358.72;4910702;28;20147;-82
2024/01/04 00:21:32;;;;;;;10.82;1.70;;;;;;;7.35;100.00;98356.94;4896639;28;20031;-83
2024/01/04 00:24:00;;;;;;;11.40;1.90;;;;;;;7.36;100.00;98357.75;4882407;28;20054;-83
2024/01/04 00:26:34;;;;;;;15.88;1.75;;;8.70;99.90;;;7.38;100.00;98359.31;4970789;28;20056;-84
2024/01/04 00:29:15;;;;;;;8.93;1.42;;;8.70;99.90;;;7.39;100.00;98362.81;4961036;28;20427;-83
2024/01/04 00:31:43;;;;;;;10.80;1.60;;;8.70;99.90;;;7.38;100.00;98363.72;4984557;28;20186;-83
2024/01/04 00:34:17;;;;;;;7.85;1.60;;;8.70;99.90;;;7.36;100.00;98355.16;4910302;28;20041;-83
2024/01/04 00:36:43;;;;;;;9.50;1.65;;;8.70;99.90;;;7.33;100.00;98358.81;4965219;28;20033;-84
2024/01/04 00:39:09;;;;;;;11.10;1.80;;;8.70;99.90;;;7.38;100.00;98361.09;4969490;28;20034;-84
2024/01/04 00:41:35;;;;;;;10.05;1.90;;;8.70;99.90;;;7.39;100.00;98360.19;4995282;28;20038;-83
2024/01/04 00:44:07;;;;;;;14.90;1.60;;;8.70;99.90;;;7.39;100.00;98360.19;4900399;28;20034;-84
2024/01/04 00:46:36;;;;;;;9.00;1.50;;;8.70;99.90;;;7.34;100.00;98362.28;4956784;28;20527;-84
2024/01/04 00:49:02;;;;;;;11.15;1.67;;;8.70;99.90;;;7.36;100.00;98369.09;4907317;28;20073;-83
2024/01/04 00:51:33;;;;;;;7.97;1.65;;;8.70;99.90;;;7.35;100.00;98366.56;4905954;28;20043;-82
2024/01/04 00:53:59;;;;;;;6.15;1.30;;;8.70;99.90;;;7.36;100.00;98365.63;4928289;28;20465;-83
2024/01/04 00:56:57;;;;;;;11.60;1.73;;;8.70;99.90;;;7.35;100.00;98359.56;4977689;28;20034;-82
2024/01/04 00:59:26;;;;;;;7.43;1.30;;;8.70;99.90;;;7.31;100.00;98352.84;4874768;28;20105;-82
2024/01/04 01:01:57;;;;;;;13.32;2.53;;;8.60;99.90;;;7.29;100.00;98367.00;4836906;29;20043;-83
2024/01/04 01:04:26;;;;;;;10.35;1.98;;;8.60;99.90;;;7.27;100.00;98361.03;4839465;29;20037;-84
2024/01/04 01:06:55;;;;;;;5.40;1.30;;;8.60;99.90;;;7.22;100.00;98360.53;4826559;28;20569;-84
2024/01/04 01:09:34;;;;;;;12.40;1.63;;;8.60;99.90;;;7.29;100.00;98372.25;4835652;29;20108;-84
2024/01/04 01:12:26;;;;;;;8.23;1.90;;;8.60;99.90;;;7.27;100.00;98374.13;4798001;29;20044;-83
2024/01/04 01:14:52;;;;;;;10.20;2.17;;;8.60;99.90;;;7.24;100.00;98369.97;4843375;29;20040;-84
2024/01/04 01:17:18;;;;;;;15.60;2.00;;;8.60;99.90;;;7.26;100.00;98375.91;4810789;29;20396;-82
2024/01/04 01:20:08;;;;;;;8.77;2.00;;;8.60;99.90;;;7.27;100.00;98381.97;4869339;28;20626;-84
2024/01/04 01:22:36;;;;;;;15.05;2.15;;;8.60;99.90;;;7.26;100.00;98383.78;4880918;28;20048;-84
2024/01/04 01:25:14;;;;;;;13.27;2.40;;;;;;;7.29;100.00;98386.16;4871444;28;20033;-83
2024/01/04 01:27:43;;;;;;;14.23;3.15;;;8.60;99.90;;;7.33;100.00;98385.00;4917137;28;20027;-83
2024/01/04 01:30:14;;;;;;;8.77;2.05;;;8.60;99.90;;;7.27;100.00;98395.06;4908323;28;20054;-83
2024/01/04 01:32:45;;;;;;;15.75;2.55;;;8.60;99.90;;;7.18;100.00;98397.38;4890413;28;20400;-84
2024/01/04 01:35:26;;;;;;;13.40;2.63;;;8.60;99.90;;;7.18;100.00;98392.16;4930567;28;20051;-83
2024/01/04 01:38:15;;;;;;;8.73;1.80;;;;;;;7.18;100.00;98397.38;4891483;28;20049;-83
2024/01/04 01:40:43;;;;;;;10.27;2.15;;;8.50;99.90;;;7.14;100.00;98395.91;4937511;28;20037;-84
2024/01/04 01:43:18;;;;;;;6.20;1.33;;;8.50;99.90;;;7.05;100.00;98387.88;4945076;28;20072;-83
2024/01/04 01:45:46;;;;;;;3.03;0.90;;;8.40;99.90;;;7.01;100.00;98387.25;4930046;28;20033;-83
2024/01/04 01:48:24;;;;;;;5.22;1.08;;;8.40;99.90;;;6.99;100.00;98387.34;4936910;28;20045;-84
2024/01/04 01:51:19;;;;;;;10.57;1.10;;;8.40;99.90;;;7.03;100.00;98395.84;4927934;28;20064;-83
2024/01/04 01:53:45;;;;;;;3.53;1.15;;;8.30;99.90;;;7.01;100.00;98394.28;4909298;28;20050;-83
2024/01/04 01:56:21;;;;;;;;;;;;;;;;;;;;;
2024/01/04 01:58:52;;;;;;;7.05;1.25;;;8.30;99.90;;;6.99;100.00;98389.97;4906755;28;20277;-83
2024/01/04 02:01:18;;;;;;;8.70;1.55;;;8.30;99.90;;;6.97;100.00;98398.88;4940219;28;20116;-83
2024/01/04 02:03:53;;;;;;;6.70;1.10;;;;;;;6.98;100.00;98392.72;4926043;28;20033;-84
2024/01/04 02:06:19;;;;;;;5.32;1.30;;;8.30;99.90;;;6.94;100.00;98396.47;4970559;28;20041;-83
2024/01/04 02:08:48;;;;;;;5.38;0.95;;;8.30;99.90;;;6.94;100.00;98393.84;4899745;28;20049;-83
2024/01/04 02:11:35;;;;;;;9.38;1.33;;;8.30;99.90;;;6.96;100.00;98397.22;4907221;28;20101;-84
2024/01/04 02:14:30;;;;;;;8.02;1.40;;;8.30;99.90;;;6.95;100.00;98400.75;4917571;28;20048;-83
2024/01/04 02:16:56;;;;;;;9.43;1.33;;;8.30;99.90;;;6.93;100.00;98389.56;4913376;28;20680;-83
2024/01/04 02:19:26;;;;;;;7.38;1.15;;;8.30;99.90;;;6.89;100.00;98383.72;4912232;28;20043;-84
2024/01/04 02:22:07;;;;;;;5.10;1.30;;;;;;;6.92;100.00;98395.75;4925130;28;20466;-83
2024/01/04 02:24:56;;;;;;;10.32;1.80;;;8.30;99.90;;;6.91;100.00;98399.28;4943735;28;20057;-83
2024/01/04 02:27:24;;;;;;;9.73;1.30;;;8.20;99.90;;;6.88;100.00;98397.72;4930515;28;20046;-83
2024/01/04 02:30:04;;;;;;;3.88;1.10;;;8.20;99.90;;;6.86;100.00;98404.00;4954112;28;20158;-84
2024/01/04 02:32:38;;;;;;;8.10;1.10;;;8.20;99.90;;;6.90;100.00;98401.06;4926135;28;20097;-83
2024/01/04 02:35:07;;;;;;;4.55;1.30;;;8.20;99.90;;;6.84;100.00;98400.66;4933759;28;20034;-83
2024/01/04 02:37:44;;;;;;;6.55;1.42;;;8.10;99.90;;;6.77;100.00;98398.44;4923057;28;20397;-83
2024/01/04 02:40:15;;;;;;;1.85;0.90;;;8.10;99.90;;;6.78;100.00;98404.50;4934282;28;20046;-83
2024/01/04 02:42:49;;;;;;;5.10;1.08;;;8.10;99.90;;;6.75;100.00;98408.19;4903300;28;20037;-83
2024/01/04 02:45:16;;;;;;;5.88;1.13;;;8.10;99.90;;;6.71;100.00;98401.47;4975360;28;20038;-84
2024/01/04 02:47:42;;;;;;;3.70;0.77;;;8.10;99.90;;;6.71;100.00;98408.50;4928081;28;20377;-82
2024/01/04 02:50:18;;;;;;;4.05;0.80;;;8.10;99.90;;;6.70;100.00;98410.28;4962820;28;20068;-83
2024/01/04 02:52:44;;;;;;;;;;;8.10;99.90;;;6.66;100.00;98405.38;4943089;28;20390;-84
2024/01/04 02:55:19;;;;;;;3.90;0.93;;;8.10;99.90;;;6.68;100.00;98408.72;4928641;28;19917;-84
2024/01/04 02:57:45;;;;;;;3.58;0.93;;;8.00;99.90;;;6.68;100.00;98412.16;4896369;28;20465;-85
2024/01/04 03:00:41;;;;;;;;;;;;;;;;;;;;;
2024/01/04 03:03:07;;;;;;;4.90;1.05;;;8.00;99.90;;;6.68;100.00;98412.16;4905371;28;20599;-84
2024/01/04 03:06:16;;;;;;;3.80;0.70;;;8.00;99.90;;;6.70;100.00;98412.91;4939872;28;20040;-84
2024/01/04 03:08:44;;;;;;;2.83;0.60;;;8.10;99.90;;;6.70;100.00;98417.28;4914985;28;20042;-84
2024/01/04 03:11:18;;;;;;;1.85;0.60;;;8.00;99.90;;;6.69;100.00;98411.22;4908357;28;20124;-84
2024/01/04 03:13:46;;;;;;;1.65;0.50;;;8.10;99.90;;;6.70;100.00;98412.91;4919527;28;20504;-84
2024/01/04 03:16:15;;;;;;;4.25;0.50;;;8.00;99.90;;;6.66;100.00;98414.03;4999821;28;20088;-83
2024/01/04 03:19:00;;;;;;;;;;;;;;;;;;;;;
2024/01/04 03:21:26;;;;;;;3.38;0.52;;;8.00;99.90;;;6.67;100.00;98410.47;4919281;28;20746;-83
2024/01/04 03:23:54;;;;;;;2.10;0.57;;;8.10;99.90;;;6.69;100.00;98419.06;4896995;28;20039;-83
2024/01/04 03:26:34;;;;;;;1.98;0.45;;;8.00;99.90;;;6.67;100.00;98412.25;4945053;28;20137;-83
2024/01/04 03:29:10;;;;;;;;;;;;;;;;;;;;;
2024/01/04 03:31:36;;;;;;;;;;;8.00;99.90;;;6.66;100.00;98414.03;4953447;28;20045;-83
2024/01/04 03:34:05;;;;;;;2.30;0.60;;;8.00;99.90;;;6.67;100.00;98417.50;4924598;28;19917;-84
2024/01/04 03:36:38;;;;;;;6.03;0.80;;;8.00;99.90;;;6.65;100.00;98422.84;4901552;28;20027;-84
2024/01/04 03:39:07;;;;;;;3.70;0.80;;;8.00;99.90;;;6.64;100.00;98436.84;4894176;28;20134;-82
2024/01/04 03:41:52;;;;;;;;;;;;;;;;;;;;;
2024/01/04 03:44:25;;;;;;;0.95;0.50;;;7.70;99.90;;;5.68;100.00;98443.91;4891176;28;20777;-83
2024/01/04 03:47:01;;;;;;;;;;;;;;;;;;;;;
2024/01/04 03:49:28;;;;;;;;;;;7.30;99.90;;;5.23;100.00;98438.03;4899161;28;21516;-83
2024/01/04 03:51:54;;;;;;;1.33;0.60;;;;;;;5.11;100.00;98435.19;4926579;28;20013;-84
2024/01/04 03:54:34;;;;;;;4.20;0.70;;;;;;;5.02;100.00;98438.38;4893815;28;20035;-83
2024/01/04 03:57:10;;;;;;;;;;;;;;;;;;;;;
2024/01/04 03:59:37;;;;;;;2.63;0.47;;;6.70;99.90;;;4.86;100.00;98442.81;4945805;28;20040;-83
2024/01/04 04:02:06;;;;;;;3.47;0.70;;;;;;;4.78;100.00;98450.28;4930218;28;20043;-84
2024/01/04 04:04:56;;;;;;;1.33;0.55;;;;;;;4.70;100.00;98445.50;4959104;28;20033;-84
2024/01/04 04:07:49;;;;;;;0.70;0.50;;;6.40;99.90;;;4.60;100.00;98455.66;4996861;28;20037;-84
2024/01/04 04:10:16;;;;;;;1.27;0.50;;;6.30;99.90;;;4.58;100.00;98456.66;4913383;28;20149;-84
2024/01/04 04:12:44;;;;;;;1.58;0.70;;;;;;;4.64;100.00;98464.94;4931325;28;20037;-83
2024/01/04 04:15:18;;;;;;;2.30;0.50;;;6.30;99.90;;;4.54;100.00;98461.22;4896132;28;20121;-84
2024/01/04 04:17:46;;;;;;;3.58;0.70;;;6.20;99.90;;;4.55;100.00;98462.88;4922849;28;21598;-84
2024/01/04 04:20:16;;;;;;;2.28;0.80;;;6.20;99.90;;;4.56;100.00;98459.38;4964474;28;20038;-85
2024/01/04 04:22:55;;;;;;;2.80;0.90;;;6.20;99.90;;;4.58;100.00;98461.84;4891003;28;20049;-83
2024/01/04 04:25:27;;;;;;;1.08;0.80;;;6.20;99.90;;;4.55;100.00;98460.28;4914513;28;20045;-84
2024/01/04 04:27:55;;;;;;;1.67;0.85;;;6.20;99.90;;;4.55;100.00;98468.09;4947385;28;20033;-83
2024/01/04 04:30:38;;;;;;;1.63;0.80;;;6.20;99.90;;;4.57;100.00;98463.63;4921613;28;20422;-85
2024/01/04 04:33:27;;;;;;;1.52;0.73;;;6.20;99.90;;;4.49;100.00;98460.63;4946449;28;20044;-84
2024/01/04 04:35:55;;;;;;;4.80;0.98;;;;;;;4.51;100.00;98463.97;4943206;28;20038;-85
2024/01/04 04:38:45;;;;;;;1.23;0.70;;;;;;;4.45;100.00;98467.81;4928202;28;20396;-84
2024/01/04 04:41:28;;;;;;;2.80;0.55;;;6.10;99.90;;;4.38;100.00;98476.03;4963017;28;20041;-84
2024/01/04 04:43:55;;;;;;;3.95;0.70;;;;;;;4.47;100.00;98475.50;4929735;28;20050;-84
2024/01/04 04:46:46;;;;;;;2.22;0.52;;;;;;;4.50;100.00;98485.78;4914809;28;20042;-83
2024/01/04 04:49:15;;;;;;;2.22;0.80;;;6.10;99.90;;;4.53;100.00;98482.97;4913821;28;20091;-84
2024/01/04 04:51:50;;;;;;;;;;;;;;;;;;;;;
2024/01/04 04:54:17;;;;;;;7.28;1.88;;;6.10;99.90;;;4.40;100.00;98490.66;4873847;28;20054;-84
2024/01/04 04:56:45;;;;;;;11.50;1.30;;;6.10;99.90;;;4.38;100.00;98494.28;4909173;28;20035;-84
2024/01/04 04:59:35;;;;;;;1.35;0.50;;;6.90;99.90;;;4.27;100.00;98490.50;4896802;28;20043;-84
2024/01/04 05:02:18;;;;;;;3.33;1.58;;;6.00;99.90;;;4.41;100.00;98497.56;4899158;28;20062;-84
2024/01/04 05:04:45;;;;;;;4.63;1.10;;;6.00;99.90;;;4.41;100.00;98497.56;4932238;28;20059;-83
2024/01/04 05:07:26;;;;;;;4.28;0.93;;;6.00;99.90;;;4.39;100.00;98501.19;4910810;28;20039;-84
2024/01/04 05:10:11;;;;;;;;;;;;;;;;;;;;;
2024/01/04 05:12:47;;;;;;;7.03;1.17;;;6.00;99.90;;;4.55;100.00;98509.78;4913235;28;20136;-84
2024/01/04 05:15:25;;;;;;;4.22;1.27;;;;;;;4.55;100.00;98501.16;4889458;28;20096;-84
2024/01/04 05:18:31;;;;;;;;;;;;;;;;;;;;;
2024/01/04 05:20:58;;;;;;;5.22;1.23;;;6.00;99.90;;;4.54;100.00;98513.34;4928840;28;20645;-84
2024/01/04 05:23:24;;;;;;;4.63;0.98;;;6.00;99.90;;;4.56;100.00;98511.50;4920550;28;20033;-84
2024/01/04 05:26:18;;;;;;;4.68;1.10;;;6.00;99.90;;;4.47;100.00;98518.06;4918811;28;20044;-83
2024/01/04 05:28:46;;;;;;;5.18;1.45;;;6.00;99.90;;;4.47;100.00;98527.63;4996536;28;20136;-83
2024/01/04 05:31:24;;;;;;;3.95;1.25;;;5.90;99.90;;;4.30;100.00;98520.78;4947708;28;20033;-85
2024/01/04 05:33:50;;;;;;;7.55;1.65;;;5.90;99.90;;;4.25;100.00;98518.41;4989998;28;20048;-83
2024/01/04 05:36:39;;;;;;;3.28;1.63;;;5.90;99.90;;;4.23;100.00;98522.91;4950243;28;20034;-84
2024/01/04 05:39:05;;;;;;;9.88;1.48;;;;;;;4.19;100.00;98523.13;4848865;28;20044;-84
2024/01/04 05:41:34;;;;;;;5.28;1.60;;;5.80;99.90;;;4.15;100.00;98532.91;4875986;28;20171;-84
2024/01/04 05:44:08;;;;;;;8.45;1.60;;;5.80;99.90;;;4.11;100.00;98542.63;4836588;28;20136;-84
2024/01/04 05:46:38;;;;;;;6.70;1.35;;;;;;;3.92;100.00;98541.97;4866584;28;20514;-84
2024/01/04 05:49:26;;;;;;;4.63;1.05;;;5.60;99.90;;;3.80;100.00;98550.41;4824012;28;20635;-84
2024/01/04 05:51:56;;;;;;;2.85;1.17;;;;;;;3.74;100.00;98548.13;4794469;29;20053;-83
2024/01/04 05:54:35;;;;;;;1.98;1.08;;;5.50;99.90;;;3.66;100.00;98553.78;4821967;29;20037;-84
2024/01/04 05:57:28;;;;;;;2.85;1.38;;;5.40;99.90;;;3.60;100.00;98565.34;4819051;29;20119;-85
2024/01/04 05:59:57;;;;;;;1.73;0.40;;;;;;;3.47;100.00;98567.72;4836322;29;20048;-84
2024/01/04 06:03:16;;;;;;;4.95;1.02;;;5.30;99.90;;;3.48;100.00;98561.63;4823278;29;20055;-84
2024/01/04 06:05:45;;;;;;;1.63;0.98;;;5.20;99.90;;;3.37;100.00;98563.94;4849717;29;20111;-84
2024/01/04 06:08:28;;;;;;;1.17;0.80;;;5.10;99.90;;;3.36;100.00;98572.66;4857169;29;20420;-83
2024/01/04 06:11:06;;;;;;;0.75;0.50;;;;;;;3.42;100.00;98572.34;4853446;28;20047;-84
2024/01/04 06:13:35;;;;;;;1.63;0.50;;;5.20;99.90;;;3.44;100.00;98583.50;4862456;28;20046;-84
2024/01/04 06:16:19;;;;;;;;;;;;;;;;;;;;;
2024/01/04 06:18:46;;;;;;;1.70;0.50;;;;;;;3.61;100.00;98590.44;4908250;28;20161;-83
2024/01/04 06:21:15;;;;;;;0.98;0.60;;;5.20;99.90;;;3.62;100.00;98593.88;4950391;28;20033;-84
2024/01/04 06:23:58;;;;;;;5.22;0.98;;;;;;;3.70;100.00;98594.34;4941526;28;20475;-84
2024/01/04 06:26:47;;;;;;;2.17;0.85;;;5.20;99.90;;;3.76;100.00;98603.56;4905525;28;20041;-84
2024/01/04 06:29:15;;;;;;;2.65;0.90;;;5.30;99.90;;;3.77;100.00;98605.25;4901462;28;20106;-84
2024/01/04 06:32:47;;;;;;;2.80;1.00;;;5.30;99.90;;;3.74;100.00;98618.41;4883096;28;20127;-83
2024/01/04 06:36:26;;;;;;;4.07;1.13;;;;;;;3.70;100.00;98623.81;4839239;28;20054;-84
2024/01/04 06:38:35;;;;;;;2.55;0.82;;;;;;;3.36;100.00;98627.28;4899493;28;20099;-84
2024/01/04 06:41:29;;;;;;;2.88;1.00;;;;;;;3.40;100.00;98628.81;4886299;28;20178;-84
2024/01/04 06:43:56;;;;;;;4.20;0.90;;;;;;;3.36;100.00;98629.06;4887831;28;20134;-84
2024/01/04 06:46:35;;;;;;;4.00;0.28;;;;;;;3.14;100.00;98629.28;4869846;28;20118;-85
2024/01/04 06:49:18;;;;;;;1.85;0.28;;;4.90;99.90;;;3.06;100.00;98635.69;4910669;28;20050;-83
2024/01/04 06:52:08;;;;;;;2.22;0.40;;;4.90;99.90;;;3.08;100.00;98633.88;4866409;28;21030;-83
2024/01/04 06:55:06;;;;;;;0.90;0.20;;;;;;;3.13;100.00;98641.44;4913877;28;20034;-87
2024/01/04 06:57:34;;;;;;;0.80;0.50;;;4.80;99.90;;;3.11;100.00;98651.09;4922806;28;20041;-84
2024/01/04 07:00:15;;;;;;;5.22;0.57;;;4.80;99.90;;;3.01;100.00;98647.25;4903029;28;21190;-84
2024/01/04 07:02:47;;;;;;;2.70;0.90;;;4.70;99.90;;;3.00;100.00;98648.16;4898554;28;20029;-84
2024/01/04 07:05:16;;;;;;;2.50;0.55;;;;;;;2.92;100.00;98653.75;4905777;28;20795;-84
2024/01/04 07:08:06;;;;;;;1.17;0.35;;;4.70;99.90;;;2.94;100.00;98645.84;4927738;28;20169;-84
2024/01/04 07:10:35;;;;;;;0.95;0.40;;;4.60;99.90;;;2.86;100.00;98654.03;4917115;28;20087;-84
2024/01/04 07:13:18;;;;;;;1.52;0.60;;;4.60;99.90;;;2.90;100.00;98657.34;4919827;28;20072;-85
2024/01/04 07:15:55;;;;;;;3.33;0.68;;;;;;;2.83;100.00;98649.84;4952448;28;20049;-84
2024/01/04 07:18:21;;;;;;;2.08;0.73;;;4.60;99.90;;;2.92;100.00;98658.13;4941512;28;20037;-84
2024/01/04 07:20:47;;;;;;;1.27;0.80;;;4.60;99.90;;;2.85;100.00;98652.34;4889089;28;20099;-84
2024/01/04 07:23:20;;;;;;;2.53;0.63;;;4.60;99.90;;;2.81;100.00;98658.63;4911813;28;20405;-84
2024/01/04 07:25:45;;;;;;;1.15;0.52;;;4.60;99.90;;;2.84;100.00;98671.47;4893473;28;20449;-83
2024/01/04 07:28:40;;;;;;;1.30;0.57;;;4.60;99.90;;;2.90;100.00;98675.53;4899353;28;20454;-83
2024/01/04 07:31:08;;;;;;;3.00;0.90;;;4.60;99.90;;;2.89;100.00;98672.06;4858649;28;20055;-84
2024/01/04 07:33:45;;;;;;;2.47;0.43;;;4.60;99.90;;;2.82;100.00;98673.28;4891664;28;20047;-84
2024/01/04 07:36:25;;;;;;;2.78;0.77;;;;;;;2.80;100.00;98683.75;4915174;28;20405;-84
2024/01/04 07:38:54;;;;;;;0.63;0.30;;;;;;;2.74;100.00;98678.00;4961164;22;20116;-84
2024/01/04 07:41:39;;;;;;;;;;;;;;;;;;;;;
2024/01/04 07:44:06;;;;;;;1.20;0.60;;;4.50;99.90;;;2.96;100.00;98690.81;4917740;28;20757;-83
2024/01/04 07:46:39;;;;;;;6.80;0.80;;;4.60;99.90;;;2.96;100.00;98689.09;4949015;28;20276;-84
2024/01/04 07:51:56;;;;;;;2.83;1.00;;;4.60;99.90;;;2.98;100.00;98684.66;4919445;28;20612;-83
2024/01/04 07:54:49;;;;;;;4.88;1.20;;;4.60;99.90;;;3.00;100.00;98685.44;4969303;28;20172;-83
2024/01/04 07:57:17;;;;;;;3.08;1.10;;;4.60;99.90;;;3.09;100.00;98702.34;4950311;23;20042;-83
2024/01/04 08:00:08;;;;;;;1.88;1.10;;;;;;;3.19;100.00;98700.13;4925766;28;20038;-83
2024/01/04 08:02:37;;;;;;;1.88;1.05;;;4.70;99.90;;;3.21;100.00;98706.09;4911023;28;20407;-85
2024/01/04 08:05:25;;;;;;;4.10;1.60;;;4.70;99.90;;;3.20;100.00;98709.63;4920246;28;20041;-83
2024/01/04 08:07:54;;;;;;;3.88;1.23;;;;;;;3.24;100.00;98712.00;4980229;28;20412;-83
2024/01/04 08:10:30;;;;;;;;;;;;;;;;;;;;;
2024/01/04 08:12:56;;;;;;;2.88;0.95;;;4.80;99.90;;;3.26;100.00;98720.56;4946695;28;20043;-84
2024/01/04 08:15:25;;;;;;;1.88;0.68;;;;;;;3.17;100.00;98721.00;4930940;28;20515;-84
2024/01/04 08:17:58;;;;;;;2.42;0.80;;;4.80;99.90;;;3.24;100.00;98729.34;4904538;23;20147;-83
2024/01/04 08:20:27;;;;;;;2.13;1.00;;;4.80;99.90;;;3.17;100.00;98725.34;4897548;28;20045;-83
2024/01/04 08:23:27;;;;;;;3.05;1.23;;;;;;;3.23;100.00;98727.66;4923239;28;20047;-84
2024/01/04 08:25:58;;;;;;;2.95;0.52;;;4.70;99.90;;;2.79;100.00;98705.47;4950724;28;20077;-84
2024/01/04 08:28:24;;;;;;;1.77;0.55;;;4.50;99.90;;;2.56;100.00;98719.53;4895394;28;20060;-84
2024/01/04 08:30:50;;;;;;;1.48;0.90;;;4.40;99.90;;;2.43;100.00;98716.66;4868062;28;20043;-84
2024/01/04 08:33:16;;;;;;;3.28;1.20;;;4.30;99.90;;;2.49;100.00;98720.72;4842383;28;20036;-83
2024/01/04 08:35:55;;;;;;;3.50;1.33;;;;;;;2.48;100.00;98726.81;4842282;28;20427;-84
2024/01/04 08:38:38;;;;;;;7.38;1.50;;;4.30;99.90;;;2.53;100.00;98730.06;4864934;28;20043;-84
2024/01/04 08:41:15;;;;;;;3.80;1.60;;;4.30;99.90;;;2.58;100.00;98730.69;4829242;29;20040;-83
2024/01/04 08:43:48;;;;;;;9.15;2.45;;;4.30;99.90;;;2.57;100.00;98739.41;4883888;28;20421;-84
2024/01/04 08:46:16;;;;;;;7.28;1.70;;;4.30;99.90;;;2.65;100.00;98745.06;4888570;28;20403;-85
2024/01/04 08:49:15;;;;;;;6.72;1.77;;;4.40;99.90;;;2.61;100.00;98746.16;4888288;28;20630;-84
2024/01/04 08:51:58;;;;;;;2.50;1.27;;;;;;;2.45;100.00;98764.19;4891886;28;20061;-84
2024/01/04 08:54:35;;;;;;;3.67;1.00;;;4.30;99.90;;;2.57;100.00;98760.19;4897131;28;20509;-85
2024/01/04 08:57:27;;;;;;;2.88;1.50;;;;;;;2.59;100.00;98773.97;4916124;28;20478;-85
2024/01/04 08:59:56;;;;;;;3.88;1.33;;;;;;;2.57;100.00;98781.00;4918073;28;20045;-83
2024/01/04 09:02:35;;;;;;;5.18;1.55;;;4.20;99.90;;;2.56;100.00;98788.84;4927875;28;20054;-85
2024/01/04 09:07:56;;;;;;;3.45;1.02;;;;;;;2.26;100.00;98803.09;4935301;28;20037;-85
2024/01/04 09:10:36;;;;;;;2.15;1.10;;;4.00;99.90;;;2.23;100.00;98807.59;4903537;28;20048;-83
2024/01/04 09:13:29;;;;;;;2.85;0.77;;;4.00;99.90;;;2.28;100.00;98823.81;4944305;28;20042;-83
2024/01/04 09:15:58;;;;;;;3.25;1.00;;;3.90;99.90;;;2.29;100.00;98840.25;4881978;28;20103;-84
2024/01/04 09:18:36;;;;;;;4.32;1.35;;;3.80;99.90;;;2.13;100.00;98847.84;4944767;23;20051;-83
2024/01/04 09:21:16;;;;;;;2.97;1.23;;;;;;;1.89;100.00;98857.50;4949447;28;20522;-83
2024/01/04 09:23:55;;;;;;;3.35;1.20;;;3.70;99.90;;;1.84;100.00;98865.47;4999417;28;20050;-85
2024/01/04 09:26:28;;;;;;;5.53;1.58;;;3.60;99.90;;;1.77;100.00;98862.28;4906285;28;20030;-84
2024/01/04 09:29:18;;;;;;;3.90;1.33;;;3.50;99.90;;;1.54;100.00;98870.16;4895019;28;20046;-83
2024/01/04 09:31:55;;;;;;;7.32;1.48;;;;;;;1.54;100.00;98893.50;4802869;29;20091;-85
2024/01/04 09:34:24;;;;;;;4.03;1.80;;;3.30;99.90;;;1.23;100.00;98899.81;4848578;28;20131;-84
2024/01/04 09:37:01;;;;;;;;;;;;;;;;;;;;;
2024/01/04 09:39:27;;;;;;;2.88;1.67;;;;;;;1.23;100.00;98915.38;4954160;28;20050;-84
2024/01/04 09:42:09;;;;;;;4.47;1.58;;;;;;;1.38;100.00;98920.03;4959316;28;20052;-84
2024/01/04 09:45:08;;;;;;;7.25;2.30;;;3.10;99.90;;;1.47;100.00;98928.31;4888135;28;20150;-85
2024/01/04 09:47:50;;;;;;;5.88;2.10;;;3.10;99.90;;;1.49;100.00;98924.78;4900812;28;20081;-84
2024/01/04 09:50:27;;;;;;;6.18;1.88;;;;;;;1.47;100.00;98939.56;4848631;28;20055;-84
2024/01/04 09:53:17;;;;;;;2.85;1.20;;;;;;;1.16;100.00;98935.50;4863112;28;20036;-84
2024/01/04 09:55:46;;;;;;;5.72;1.10;;;3.00;99.90;;;1.25;100.00;98946.44;4891232;28;20046;-84
2024/01/04 09:58:35;;;;;;;2.33;1.20;;;2.90;99.90;;;1.25;100.00;98944.69;4899290;28;20141;-84
2024/01/04 10:01:18;;;;;;;4.05;1.20;;;2.90;99.90;;;1.34;100.00;98962.53;4929404;28;20050;-84
2024/01/04 10:03:48;;;;;;;1.75;0.80;;;;;;;1.22;100.00;98966.41;4968714;28;20041;-84
2024/01/04 10:07:15;;;;;;;1.63;0.90;;;2.80;99.90;;;0.84;100.00;98972.94;4957244;28;20068;-84
2024/01/04 10:10:37;;;;;;;1.08;0.45;;;2.70;99.90;;;0.73;100.00;98977.66;4878567;28;20064;-84
2024/01/04 10:12:58;;;;;;;5.45;1.55;;;2.60;99.90;;;0.73;100.00;98988.03;4837414;28;20119;-83
2024/01/04 10:15:27;;;;;;;3.38;1.27;;;2.60;99.90;;;0.85;100.00;99003.16;4858247;28;20039;-84
2024/01/04 10:18:06;;;;;;;2.78;1.30;;;2.60;99.90;;;0.72;100.00;98994.13;4861290;28;20044;-84
2024/01/04 10:21:18;;;;;;;3.03;1.42;;;2.60;99.90;;;0.68;100.00;99008.06;4848647;28;20040;-84
2024/01/04 10:23:45;;;;;;;3.60;1.13;;;2.50;99.90;;;0.63;100.00;99015.13;4849784;29;20040;-83
2024/01/04 10:26:51;;;;;;;;;;;;;;;;;;;;;
2024/01/04 10:29:50;;;;;;;8.63;1.25;;;2.40;99.90;;;0.45;100.00;99042.47;4844745;29;20704;-84
2024/01/04 10:32:17;;;;;;;2.42;0.98;;;;;;;0.43;100.00;99049.47;4872069;28;20051;-83
2024/01/04 10:35:08;;;;;;;4.15;1.40;;;2.20;99.90;;;0.22;100.00;99044.06;4883510;29;20045;-83
2024/01/04 10:37:38;;;;;;;4.25;0.90;;;;;;;0.32;100.00;99062.75;4870498;29;20104;-84
2024/01/04 10:40:35;;;;;;;3.65;1.15;;;2.10;99.90;;;0.23;100.00;99068.22;4851379;29;20043;-83
2024/01/04 10:43:45;;;;;;;6.55;1.40;;;2.10;99.90;;;0.12;100.00;99059.03;4825820;29;21055;-84
2024/01/04 10:46:42;;;;;;;2.03;1.00;;;2.00;99.90;;;-0.03;100.00;99080.19;4805505;29;20048;-85
2024/01/04 10:49:17;;;;;;;5.03;0.90;;;1.90;99.90;;;-0.15;100.00;99088.31;4816773;29;20039;-81
2024/01/04 10:52:01;;;;;;;5.40;1.10;;;1.80;99.90;;;-0.21;100.00;99107.47;4832672;29;20439;-81
2024/01/04 10:54:38;;;;;;;3.67;1.02;;;1.80;99.90;;;-0.23;100.00;99110.09;4840184;29;20504;-81
2024/01/04 10:57:07;;;;;;;3.70;1.10;;;1.70;99.90;;;-0.24;100.00;99121.34;4926701;28;20053;-82
2024/01/04 10:59:44;;;;;;;2.88;1.00;;;1.70;99.90;;;-0.21;100.00;99129.00;4883580;28;20151;-81
2024/01/04 11:02:18;;;;;;;1.08;0.68;;;1.70;99.90;;;-0.25;100.00;99140.31;4898080;28;20114;-80
2024/01/04 11:04:47;;;;;;;1.90;1.02;;;1.70;99.90;;;-0.24;100.00;99144.63;4877796;28;20400;-81
2024/01/04 11:07:15;;;;;;;2.22;0.80;;;1.60;99.90;;;-0.40;100.00;99156.25;4892415;28;20514;-80
2024/01/04 11:09:49;;;;;;;2.67;1.00;;;1.60;99.90;;;-0.42;100.00;99158.03;4882494;28;20042;-81
2024/01/04 11:12:17;;;;;;;4.35;1.20;;;1.50;99.90;;;-0.43;100.00;99172.72;4907754;28;20095;-82
2024/01/04 11:15:15;;;;;;;3.83;1.60;;;1.50;99.90;;;-0.40;100.00;99178.69;4874190;28;20099;-81
2024/01/04 11:18:23;;;;;;;2.22;1.00;;;1.50;99.90;;;-0.51;100.00;99181.56;4874197;28;20046;-81
2024/01/04 11:21:35;;;;;;;6.25;1.05;;;1.50;99.90;;;-0.51;100.00;99197.91;4888675;28;20070;-81
2024/01/04 11:24:28;;;;;;;5.82;1.35;;;1.40;99.90;;;-0.58;100.00;99201.56;4980887;28;20037;-81
2024/01/04 11:26:58;;;;;;;5.53;1.33;;;1.40;99.90;;;-0.54;100.00;99210.06;5003416;28;20029;-81
2024/01/04 11:29:46;;;;;;;3.30;1.27;;;1.40;99.90;;;-0.50;100.00;99224.63;4962143;28;20064;-81
2024/01/04 11:32:16;;;;;;;7.40;1.48;;;1.30;99.90;;;-0.59;100.00;99223.13;4955007;28;20167;-80
2024/01/04 11:35:11;;;;;;;5.05;1.70;;;1.30;99.90;;;-0.66;100.00;99235.34;4945220;28;20041;-81
2024/01/04 11:37:40;;;;;;;5.60;1.10;;;1.30;99.90;;;-0.67;100.00;99259.50;4939046;28;20046;-81
2024/01/04 11:40:29;;;;;;;5.10;1.27;;;1.30;99.90;;;-0.75;100.00;99255.41;4956178;28;20045;-80
2024/01/04 11:43:08;;;;;;;3.92;1.00;;;1.20;99.90;;;-0.74;100.00;99263.09;4970720;28;20454;-81
2024/01/04 11:45:34;;;;;;;1.88;1.13;;;1.20;99.90;;;-0.84;100.00;99228.06;4999659;28;20036;-81
2024/01/04 11:48:11;;;;;;;5.72;0.80;;;1.20;99.90;;;-0.84;100.00;99272.84;4986955;28;20029;-80
2024/01/04 11:51:06;;;;;;;5.03;1.55;;;1.20;99.90;;;-0.80;100.00;99289.09;4934493;28;20045;-80